createdAt,value
2018-09-03T00:02:20.611Z,49.09
2018-09-03T00:04:50.488Z,48.85
2018-09-03T00:07:20.918Z,48.99
2018-09-03T00:09:50.264Z,49.30
2018-09-03T00:12:20.090Z,50.17
2018-09-03T00:14:52.224Z,50.13
2018-09-03T00:17:22.466Z,50.34
2018-09-03T00:19:52.427Z,50.64
2018-09-03T00:22:26.668Z,49.96
2018-09-03T00:24:58.159Z,50.27
2018-09-03T00:27:32.831Z,50.46
2018-09-03T00:30:05.714Z,49.99
2018-09-03T00:32:41.571Z,50.12
2018-09-03T00:35:15.901Z,49.76
2018-09-03T00:37:52.454Z,50.84
2018-09-03T00:40:27.763Z,51.21
2018-09-03T00:43:07.235Z,50.47
2018-09-03T00:45:43.775Z,50.56
2018-09-03T00:48:13.415Z,50.74
2018-09-03T00:50:43.464Z,50.84
2018-09-03T00:53:12.712Z,51.00
2018-09-03T00:55:43.917Z,50.93
2018-09-03T00:58:15.209Z,50.51
2018-09-03T01:03:26.977Z,51.37
2018-09-03T01:05:56.580Z,51.47
2018-09-03T01:08:33.411Z,50.40
2018-09-03T01:11:04.085Z,50.38
2018-09-03T01:13:34.404Z,50.62
2018-09-03T01:16:05.283Z,50.46
2018-09-03T01:18:43.737Z,50.67
2018-09-03T01:21:13.606Z,49.60
2018-09-03T01:23:43.856Z,49.79
2018-09-03T01:26:13.753Z,50.11
2018-09-03T01:28:45.185Z,51.07
2018-09-03T01:31:19.326Z,50.58
2018-09-03T01:33:51.229Z,51.36
2018-09-03T01:36:23.471Z,51.21
2018-09-03T01:38:53.520Z,52.25
2018-09-03T01:41:23.361Z,51.91
2018-09-03T01:43:54.405Z,52.09
2018-09-03T01:46:27.757Z,51.71
2018-09-03T01:48:59.621Z,51.84
2018-09-03T01:51:29.036Z,50.95
2018-09-03T01:53:58.402Z,51.12
2018-09-03T01:56:30.849Z,51.30
2018-09-03T01:59:01.635Z,51.03
2018-09-03T02:01:34.217Z,50.87
2018-09-03T02:04:05.854Z,50.90
2018-09-03T02:06:39.116Z,50.86
2018-09-03T02:09:11.107Z,50.35
2018-09-03T02:11:42.242Z,50.33
2018-09-03T02:14:12.163Z,50.40
2018-09-03T02:16:41.597Z,51.47
2018-09-03T02:19:12.341Z,51.36
2018-09-03T02:21:42.261Z,51.54
2018-09-03T02:24:11.943Z,52.05
2018-09-03T02:26:42.030Z,51.23
2018-09-03T02:29:11.288Z,51.29
2018-09-03T02:31:41.639Z,51.04
2018-09-03T02:34:11.974Z,50.81
2018-09-03T02:36:41.906Z,50.63
2018-09-03T02:39:12.661Z,51.32
2018-09-03T02:41:43.270Z,51.11
2018-09-03T02:44:12.762Z,51.63
2018-09-03T02:46:42.459Z,50.83
2018-09-03T02:49:12.524Z,50.16
2018-09-03T02:51:48.785Z,50.40
2018-09-03T02:54:20.317Z,50.29
2018-09-03T02:56:49.791Z,50.68
2018-09-03T02:59:25.176Z,50.65
2018-09-03T03:01:58.899Z,50.47
2018-09-03T03:04:31.280Z,50.60
2018-09-03T03:07:02.668Z,49.75
2018-09-03T03:09:32.965Z,50.18
2018-09-03T03:12:02.777Z,50.93
2018-09-03T03:14:32.713Z,50.31
2018-09-03T03:17:04.233Z,50.14
2018-09-03T03:19:34.093Z,50.16
2018-09-03T03:22:04.372Z,50.52
2018-09-03T03:24:33.947Z,49.53
2018-09-03T03:27:03.846Z,49.43
2018-09-03T03:29:33.665Z,49.02
2018-09-03T03:32:03.936Z,48.86
2018-09-03T03:34:33.352Z,48.74
2018-09-03T03:37:02.789Z,48.72
2018-09-03T03:39:32.935Z,49.31
2018-09-03T03:42:02.710Z,49.63
2018-09-03T03:44:31.960Z,49.27
2018-09-03T03:47:01.478Z,49.44
2018-09-03T03:52:13.240Z,48.37
2018-09-03T03:54:42.412Z,48.60
2018-09-03T03:57:12.331Z,49.66
2018-09-03T03:59:42.194Z,49.71
2018-09-03T04:02:12.332Z,48.56
2018-09-03T04:04:42.921Z,48.53
2018-09-03T04:07:13.257Z,48.57
2018-09-03T04:09:42.764Z,48.53
2018-09-03T04:12:12.643Z,48.97
2018-09-03T04:14:42.188Z,48.67
2018-09-03T04:17:11.782Z,49.11
2018-09-03T04:19:41.357Z,49.50
2018-09-03T04:22:15.787Z,49.75
2018-09-03T04:24:45.377Z,49.54
2018-09-03T04:27:15.133Z,50.43
2018-09-03T04:29:44.528Z,50.31
2018-09-03T04:32:15.226Z,51.56
2018-09-03T04:34:45.793Z,51.75
2018-09-03T04:37:15.804Z,51.42
2018-09-03T04:39:45.362Z,51.14
2018-09-03T04:42:15.545Z,51.13
2018-09-03T04:44:45.013Z,51.16
2018-09-03T04:47:14.635Z,51.07
2018-09-03T04:49:44.923Z,50.07
2018-09-03T04:52:25.864Z,49.30
2018-09-03T04:54:56.042Z,49.15
2018-09-03T04:57:27.467Z,49.58
2018-09-03T04:59:56.936Z,49.56
2018-09-03T05:02:26.430Z,49.39
2018-09-03T05:04:56.000Z,49.61
2018-09-03T05:07:27.921Z,49.21
2018-09-03T05:10:01.795Z,48.52
2018-09-03T05:12:36.763Z,48.16
2018-09-03T05:15:07.920Z,48.31
2018-09-03T05:17:39.906Z,48.89
2018-09-03T05:20:09.517Z,49.17
2018-09-03T05:22:39.005Z,49.12
2018-09-03T05:25:08.647Z,48.90
2018-09-03T05:27:39.639Z,48.88
2018-09-03T05:30:21.784Z,49.33
2018-09-03T05:32:51.957Z,49.49
2018-09-03T05:35:36.530Z,50.42
2018-09-03T05:38:09.337Z,50.48
2018-09-03T05:40:38.688Z,49.64
2018-09-03T05:43:08.154Z,48.90
2018-09-03T05:45:37.593Z,48.41
2018-09-03T05:48:09.198Z,48.86
2018-09-03T05:50:39.391Z,48.68
2018-09-03T05:53:24.110Z,47.93
2018-09-03T05:55:55.806Z,47.75
2018-09-03T05:58:28.058Z,47.36
2018-09-03T06:01:06.330Z,48.01
2018-09-03T06:03:37.484Z,48.34
2018-09-03T06:06:13.085Z,47.90
2018-09-03T06:08:44.552Z,48.08
2018-09-03T06:11:17.613Z,47.67
2018-09-03T06:13:50.161Z,47.78
2018-09-03T06:16:21.373Z,48.34
2018-09-03T06:18:55.663Z,47.93
2018-09-03T06:21:31.444Z,47.76
2018-09-03T06:24:03.536Z,48.12
2018-09-03T06:26:33.541Z,47.66
2018-09-03T06:29:03.792Z,48.18
2018-09-03T06:31:46.935Z,48.55
2018-09-03T06:34:18.819Z,47.95
2018-09-03T06:36:48.249Z,47.89
2018-09-03T06:39:25.953Z,47.87
2018-09-03T06:42:07.799Z,48.13
2018-09-03T06:47:29.226Z,47.64
2018-09-03T06:49:59.191Z,47.40
2018-09-03T06:52:30.162Z,48.14
2018-09-03T06:55:03.603Z,47.52
2018-09-03T06:57:35.592Z,48.05
2018-09-03T07:00:21.492Z,48.56
2018-09-03T07:02:55.414Z,49.27
2018-09-03T07:05:25.613Z,48.24
2018-09-03T07:07:55.280Z,47.61
2018-09-03T07:10:26.629Z,48.14
2018-09-03T07:12:57.643Z,47.90
2018-09-03T07:21:09.861Z,48.96
2018-09-03T07:23:51.315Z,47.98
2018-09-03T07:26:23.979Z,48.58
2018-09-03T07:28:55.729Z,48.76
2018-09-03T07:31:27.162Z,49.17
2018-09-03T07:33:58.275Z,49.49
2018-09-03T07:36:27.734Z,50.01
2018-09-03T07:39:04.186Z,49.41
2018-09-03T07:41:34.725Z,50.12
2018-09-03T07:44:06.094Z,50.12
2018-09-03T07:46:37.231Z,50.01
2018-09-03T07:49:19.958Z,49.25
2018-09-03T07:51:50.449Z,50.07
2018-09-03T07:54:24.702Z,50.13
2018-09-03T07:56:56.816Z,49.73
2018-09-03T07:59:26.133Z,49.70
2018-09-03T08:01:55.448Z,50.28
2018-09-03T08:04:25.515Z,50.20
2018-09-03T08:06:56.578Z,52.05
2018-09-03T08:09:29.373Z,53.70
2018-09-03T08:11:59.798Z,53.50
2018-09-03T08:14:31.409Z,54.18
2018-09-03T08:17:05.503Z,55.99
2018-09-03T08:19:41.506Z,55.97
2018-09-03T08:22:18.114Z,56.36
2018-09-03T08:24:48.332Z,55.95
2018-09-03T08:27:18.512Z,56.19
2018-09-03T08:29:58.179Z,57.15
2018-09-03T08:32:28.473Z,57.74
2018-09-03T08:35:03.655Z,57.93
2018-09-03T08:37:38.319Z,57.26
2018-09-03T08:40:11.231Z,56.82
2018-09-03T08:42:43.307Z,55.61
2018-09-03T08:45:20.535Z,55.20
2018-09-03T08:47:50.539Z,55.17
2018-09-03T08:50:22.562Z,55.21
2018-09-03T08:52:54.977Z,55.65
2018-09-03T08:55:28.475Z,55.15
2018-09-03T08:58:14.588Z,54.29
2018-09-03T09:00:48.923Z,55.03
2018-09-03T09:03:24.511Z,54.94
2018-09-03T09:05:56.557Z,54.74
2018-09-03T09:08:29.200Z,55.81
2018-09-03T09:11:00.131Z,54.92
2018-09-03T09:13:37.489Z,55.07
2018-09-03T09:16:08.109Z,54.61
2018-09-03T09:18:38.943Z,54.70
2018-09-03T09:21:08.875Z,54.42
2018-09-03T09:23:42.620Z,54.56
2018-09-03T09:26:14.069Z,55.04
2018-09-03T09:28:47.845Z,54.41
2018-09-03T09:31:18.223Z,54.72
2018-09-03T09:33:59.943Z,53.97
2018-09-03T09:36:32.166Z,54.63
2018-09-03T09:39:15.687Z,54.30
2018-09-03T09:41:51.234Z,54.36
2018-09-03T09:44:20.920Z,53.50
2018-09-03T09:46:50.294Z,53.54
2018-09-03T09:49:22.402Z,53.71
2018-09-03T10:30:58.369Z,50.38
2018-09-03T10:33:33.265Z,49.58
2018-09-03T10:36:04.487Z,48.40
2018-09-03T10:38:38.377Z,49.28
2018-09-03T10:41:09.605Z,48.42
2018-09-03T10:43:41.348Z,49.07
2018-09-03T10:46:17.023Z,49.20
2018-09-03T10:48:46.654Z,49.17
2018-09-03T10:51:25.256Z,48.58
2018-09-03T10:53:57.040Z,48.36
2018-09-03T10:56:33.575Z,48.15
2018-09-03T10:59:03.853Z,47.91
2018-09-03T11:01:35.370Z,47.67
2018-09-03T11:04:07.892Z,46.91
2018-09-03T11:06:44.370Z,45.84
2018-09-03T11:09:14.580Z,46.27
2018-09-03T11:14:39.139Z,46.05
2018-09-03T11:17:10.887Z,46.47
2018-09-03T11:20:04.332Z,45.47
2018-09-03T11:22:35.249Z,45.79
2018-09-03T11:25:10.012Z,44.71
2018-09-03T11:27:40.260Z,45.17
2018-09-03T11:30:15.387Z,45.54
2018-09-03T11:32:54.484Z,45.03
2018-09-03T11:35:24.716Z,45.27
2018-09-03T11:37:54.344Z,45.72
2018-09-03T11:40:27.474Z,45.28
2018-09-03T11:42:56.797Z,44.46
2018-09-03T11:45:27.302Z,44.18
2018-09-03T11:48:08.074Z,45.05
2018-09-03T11:50:38.360Z,44.58
2018-09-03T11:53:08.717Z,45.03
2018-09-03T11:55:44.725Z,43.62
2018-09-03T11:58:16.466Z,45.18
2018-09-03T12:00:47.692Z,45.44
2018-09-03T12:03:18.848Z,46.44
2018-09-03T12:05:49.605Z,45.55
2018-09-03T12:08:26.619Z,46.60
2018-09-03T12:10:57.060Z,47.02
2018-09-03T12:13:26.798Z,46.33
2018-09-03T12:16:33.128Z,45.95
2018-09-03T12:19:06.929Z,45.28
2018-09-03T12:21:36.646Z,45.40
2018-09-03T12:24:07.009Z,45.44
2018-09-03T12:26:39.158Z,44.43
2018-09-03T12:29:10.587Z,43.25
2018-09-03T12:31:47.261Z,43.08
2018-09-03T12:34:25.200Z,43.15
2018-09-03T12:36:56.333Z,42.16
2018-09-03T12:39:25.830Z,43.41
2018-09-03T12:41:58.844Z,43.60
2018-09-03T12:44:31.063Z,44.10
2018-09-03T12:47:00.671Z,43.09
2018-09-03T12:49:43.204Z,43.20
2018-09-03T12:52:14.004Z,43.46
2018-09-03T12:54:44.454Z,42.32
2018-09-03T12:57:21.398Z,43.63
2018-09-03T12:59:51.100Z,42.69
2018-09-03T13:02:22.652Z,42.35
2018-09-03T13:04:52.467Z,43.52
2018-09-03T13:07:26.526Z,43.82
2018-09-03T13:09:56.450Z,43.75
2018-09-03T13:12:27.631Z,43.72
2018-09-03T13:15:00.256Z,43.34
2018-09-03T13:17:29.811Z,44.72
2018-09-03T13:20:01.334Z,44.55
2018-09-03T13:22:31.302Z,45.29
2018-09-03T13:25:02.085Z,45.34
2018-09-03T13:27:32.877Z,45.23
2018-09-03T13:30:08.011Z,45.00
2018-09-03T13:32:38.904Z,45.70
2018-09-03T13:35:11.632Z,44.76
2018-09-03T13:37:42.316Z,44.11
2018-09-03T13:40:13.820Z,43.76
2018-09-03T13:42:45.154Z,44.29
2018-09-03T13:45:17.459Z,43.99
2018-09-03T13:47:48.763Z,43.64
2018-09-03T13:50:20.802Z,43.95
2018-09-03T13:52:56.430Z,43.38
2018-09-03T13:58:12.304Z,43.12
2018-09-03T14:00:43.507Z,44.35
2018-09-03T14:03:22.711Z,43.96
2018-09-03T14:05:56.205Z,45.94
2018-09-03T14:08:35.411Z,45.57
2018-09-03T14:11:06.499Z,45.88
2018-09-03T14:13:36.816Z,45.89
2018-09-03T14:16:08.742Z,45.19
2018-09-03T14:18:39.848Z,45.23
2018-09-03T14:21:11.008Z,45.73
2018-09-03T14:23:42.951Z,44.84
2018-09-03T14:26:14.759Z,44.93
2018-09-03T14:28:51.606Z,45.28
2018-09-03T14:31:29.034Z,44.74
2018-09-03T14:33:59.677Z,45.81
2018-09-03T14:36:35.468Z,46.63
2018-09-03T14:39:09.484Z,46.98
2018-09-03T14:41:39.607Z,47.03
2018-09-03T14:44:19.594Z,48.36
2018-09-03T14:46:53.266Z,49.56
2018-09-03T14:52:04.360Z,49.70
2018-09-03T14:54:38.594Z,49.92
2018-09-03T14:57:10.991Z,49.52
2018-09-03T14:59:41.230Z,50.06
2018-09-03T15:02:32.546Z,50.45
2018-09-03T15:05:05.994Z,50.79
2018-09-03T15:07:35.338Z,50.79
2018-09-03T15:10:07.138Z,50.81
2018-09-03T15:12:43.263Z,49.95
2018-09-03T15:15:20.232Z,50.42
2018-09-03T15:17:50.371Z,49.50
2018-09-03T15:20:36.875Z,49.67
2018-09-03T15:23:06.969Z,50.79
2018-09-03T15:25:41.717Z,50.23
2018-09-03T15:28:17.501Z,50.36
2018-09-03T15:30:52.185Z,49.84
2018-09-03T15:33:23.032Z,50.23
2018-09-03T15:35:53.371Z,50.12
2018-09-03T15:40:58.569Z,49.85
2018-09-03T15:47:45.756Z,50.13
2018-09-03T15:50:15.543Z,51.32
2018-09-03T15:52:47.348Z,51.31
2018-09-03T15:55:18.414Z,50.83
2018-09-03T15:57:51.622Z,51.23
2018-09-03T16:00:21.620Z,51.40
2018-09-03T16:02:52.895Z,51.88
2018-09-03T16:05:24.167Z,52.15
2018-09-03T16:07:57.757Z,51.46
2018-09-03T16:10:29.443Z,52.30
2018-09-03T16:13:03.023Z,51.72
2018-09-03T16:15:35.575Z,51.76
2018-09-03T16:18:05.904Z,52.67
2018-09-03T16:20:36.390Z,53.39
2018-09-03T16:23:06.040Z,53.13
2018-09-03T16:25:57.777Z,53.18
2018-09-03T16:28:40.379Z,51.46
2018-09-03T16:31:13.633Z,51.81
2018-09-03T16:33:43.646Z,51.82
2018-09-03T16:36:20.466Z,50.67
2018-09-03T16:38:51.975Z,50.65
2018-09-03T16:41:25.712Z,51.92
2018-09-03T16:43:57.951Z,51.66
2018-09-03T16:46:31.138Z,52.51
2018-09-03T16:49:05.004Z,52.08
2018-09-03T16:51:36.065Z,52.22
2018-09-03T16:54:10.314Z,52.95
2018-09-03T16:59:06.053Z,53.11
2018-09-03T17:01:41.256Z,53.03
2018-09-03T17:04:11.730Z,52.96
2018-09-03T17:06:44.328Z,53.94
2018-09-03T17:09:16.452Z,53.80
2018-09-03T17:11:53.561Z,53.50
2018-09-03T17:14:31.479Z,53.98
2018-09-03T17:17:03.589Z,54.74
2018-09-03T17:22:41.313Z,54.60
2018-09-03T17:25:23.741Z,54.88
2018-09-03T17:27:59.322Z,54.22
2018-09-03T17:30:35.228Z,54.77
2018-09-03T17:33:08.599Z,53.98
2018-09-03T17:35:46.728Z,54.59
2018-09-03T17:38:18.623Z,54.48
2018-09-03T17:40:49.236Z,54.39
2018-09-03T17:43:23.440Z,55.21
2018-09-03T17:45:53.525Z,55.23
2018-09-03T17:48:26.606Z,55.33
2018-09-03T17:50:58.922Z,55.89
2018-09-03T17:53:37.607Z,55.00
2018-09-03T17:56:13.344Z,55.71
2018-09-03T17:58:44.600Z,55.77
2018-09-03T18:01:18.122Z,56.07
2018-09-03T18:03:49.159Z,55.83
2018-09-03T18:09:23.233Z,55.54
2018-09-03T18:11:58.923Z,55.32
2018-09-03T18:14:31.615Z,55.98
2018-09-03T18:17:06.296Z,55.32
2018-09-03T18:19:48.325Z,55.29
2018-09-03T18:22:32.821Z,55.54
2018-09-03T18:25:06.259Z,55.41
2018-09-03T18:27:36.896Z,55.51
2018-09-03T18:30:13.680Z,56.44
2018-09-03T18:32:43.669Z,55.04
2018-09-03T18:35:24.759Z,55.44
2018-09-03T18:38:01.047Z,55.75
2018-09-03T18:40:32.989Z,55.46
2018-09-03T18:43:19.331Z,54.88
2018-09-03T18:45:54.546Z,54.70
2018-09-03T18:48:25.337Z,55.92
2018-09-03T18:51:05.141Z,54.62
2018-09-03T18:53:38.733Z,55.28
2018-09-03T18:56:11.212Z,55.52
2018-09-03T19:01:37.682Z,55.32
2018-09-03T19:04:15.489Z,55.44
2018-09-03T19:06:45.980Z,55.39
2018-09-03T19:09:20.999Z,55.33
2018-09-03T19:11:52.019Z,55.06
2018-09-03T19:17:08.636Z,55.61
2018-09-03T19:19:46.705Z,55.92
2018-09-03T19:22:18.146Z,55.51
2018-09-03T19:25:02.279Z,54.99
2018-09-03T19:27:35.694Z,54.52
2018-09-03T19:30:23.479Z,54.59
2018-09-03T19:33:00.257Z,54.39
2018-09-03T19:35:31.337Z,53.99
2018-09-03T19:38:03.211Z,54.94
2018-09-03T19:40:33.434Z,54.88
2018-09-03T19:43:06.374Z,53.79
2018-09-03T19:45:38.800Z,53.96
2018-09-03T19:48:13.672Z,54.48
2018-09-03T19:50:46.037Z,53.54
2018-09-03T19:53:19.063Z,53.97
2018-09-03T19:56:02.479Z,53.55
2018-09-03T19:58:47.652Z,53.85
2018-09-03T20:01:22.156Z,54.58
2018-09-03T20:03:56.110Z,54.54
2018-09-03T20:06:27.578Z,54.28
2018-09-03T20:08:58.294Z,54.76
2018-09-03T20:11:31.883Z,55.46
2018-09-03T20:16:59.607Z,55.12
2018-09-03T20:22:22.431Z,56.05
2018-09-03T20:24:52.427Z,55.41
2018-09-03T20:27:24.387Z,55.33
2018-09-03T20:29:56.647Z,54.60
2018-09-03T20:32:31.768Z,55.21
2018-09-03T20:35:12.427Z,54.72
2018-09-03T20:37:53.267Z,54.61
2018-09-03T20:40:27.663Z,55.36
2018-09-03T20:43:05.029Z,55.19
2018-09-03T20:45:36.403Z,56.40
2018-09-03T20:48:08.699Z,55.94
2018-09-03T20:50:45.656Z,56.01
2018-09-03T20:53:15.900Z,55.18
2018-09-03T20:55:50.067Z,54.86
2018-09-03T20:58:19.539Z,56.02
2018-09-03T21:00:51.082Z,55.64
2018-09-03T21:03:21.695Z,55.37
2018-09-03T21:05:53.501Z,56.07
2018-09-03T21:08:24.594Z,56.11
2018-09-03T21:10:57.757Z,55.82
2018-09-03T21:13:28.220Z,56.17
2018-09-03T21:16:00.689Z,56.64
2018-09-03T21:18:32.800Z,56.84
2018-09-03T21:21:02.427Z,57.28
2018-09-03T21:23:33.508Z,57.54
2018-09-03T21:26:10.422Z,57.25
2018-09-03T21:28:42.516Z,57.35
2018-09-03T21:31:13.087Z,57.45
2018-09-03T21:33:43.339Z,58.00
2018-09-03T21:36:13.103Z,58.11
2018-09-03T21:38:43.184Z,58.01
2018-09-03T21:41:13.861Z,58.30
2018-09-03T21:43:44.205Z,59.01
2018-09-03T21:46:15.147Z,58.99
2018-09-03T21:48:45.523Z,59.10
2018-09-03T21:51:20.643Z,59.71
2018-09-03T21:53:50.339Z,59.57
2018-09-03T21:56:21.343Z,58.91
2018-09-03T21:58:51.189Z,60.21
2018-09-03T22:01:22.252Z,58.63
2018-09-03T22:03:52.556Z,59.45
2018-09-03T22:06:24.966Z,58.85
2018-09-03T22:08:54.551Z,57.93
2018-09-03T22:11:24.397Z,58.76
2018-09-03T22:13:53.954Z,59.43
2018-09-03T22:16:28.705Z,59.73
2018-09-03T22:18:58.461Z,59.71
2018-09-03T22:21:31.062Z,59.04
2018-09-03T22:24:04.567Z,58.73
2018-09-03T22:26:35.046Z,59.29
2018-09-03T22:29:04.604Z,59.04
2018-09-03T22:31:36.308Z,59.06
2018-09-03T22:34:09.561Z,59.62
2018-09-03T22:36:39.800Z,59.39
2018-09-03T22:39:10.430Z,59.98
2018-09-03T22:41:40.174Z,60.61
2018-09-03T22:44:12.707Z,60.97
2018-09-03T22:46:45.348Z,60.00
2018-09-03T22:49:14.962Z,60.16
2018-09-03T22:51:44.361Z,60.59
2018-09-03T22:54:16.373Z,59.99
2018-09-03T22:56:45.918Z,60.78
2018-09-03T22:59:15.149Z,59.97
2018-09-03T23:01:45.489Z,59.71
2018-09-03T23:04:16.373Z,60.10
2018-09-03T23:06:46.131Z,59.74
2018-09-03T23:09:15.887Z,60.58
2018-09-03T23:11:45.359Z,59.45
2018-09-03T23:14:14.718Z,59.90
2018-09-03T23:16:44.867Z,60.14
2018-09-03T23:19:16.070Z,59.66
2018-09-03T23:21:47.542Z,59.65
2018-09-03T23:24:18.712Z,60.20
2018-09-03T23:26:49.653Z,60.03
2018-09-03T23:29:20.600Z,60.32
2018-09-03T23:31:50.321Z,60.60
2018-09-03T23:34:19.683Z,61.41
2018-09-03T23:36:49.064Z,60.60
2018-09-03T23:39:18.651Z,60.86
2018-09-03T23:41:48.701Z,60.64
2018-09-03T23:44:19.627Z,60.84
2018-09-03T23:46:49.462Z,61.62
2018-09-03T23:49:19.652Z,61.56
2018-09-03T23:51:49.386Z,61.55
2018-09-03T23:54:18.971Z,61.80
2018-09-03T23:56:49.597Z,61.19
2018-09-03T23:59:20.668Z,61.31
